Time;durP1;ratioP1;P1;durP2;ratioP2;P2;SDS_P1;SDS_P2;PMS_P1;PMS_P2;Temp;Humidity;BMP_temperature;BMP_pressure;BME280_temperature;BME280_humidity;BME280_pressure;Samples;Min_cycle;Max_cycle;Signal;HPM_P1;HPM_P2
2022/08/20 00:00:04;;;;;;;12.73;11.57;;;;;;;;;;5040690;28;20246;-54
2022/08/20 00:02:38;;;;;;;15.30;13.90;;;;;;;;;;5032548;28;20236;-54
2022/08/20 00:05:06;;;;;;;15.73;14.40;;;;;;;;;;5037309;28;20316;-54
2022/08/20 00:07:32;;;;;;;14.57;13.30;;;;;;;;;;5039139;28;20605;-53
2022/08/20 00:09:58;;;;;;;14.50;13.18;;;;;;;;;;5036391;28;20718;-53
2022/08/20 00:12:25;;;;;;;13.30;12.02;;;;;;;;;;5036489;28;20239;-53
2022/08/20 00:14:51;;;;;;;15.40;14.10;;;;;;;;;;5033452;28;20242;-53
2022/08/20 00:17:17;;;;;;;14.65;13.35;;;;;;;;;;5038428;28;20231;-53
2022/08/20 00:19:44;;;;;;;15.23;13.82;;;;;;;;;;5041706;28;20260;-54
2022/08/20 00:22:12;;;;;;;14.75;13.38;;;;;;;;;;5042389;28;20240;-53
2022/08/20 00:24:38;;;;;;;14.57;13.27;;;;;;;;;;5046370;28;20316;-53
2022/08/20 00:27:05;;;;;;;13.82;12.60;;;;;;;;;;5037264;28;20271;-53
2022/08/20 00:29:31;;;;;;;15.43;13.63;;;;;;;;;;5040204;28;20235;-53
2022/08/20 00:31:58;;;;;;;16.05;14.65;;;;;;;;;;5034380;28;20232;-53
2022/08/20 00:34:24;;;;;;;15.52;13.70;;;;;;;;;;5036344;28;20712;-53
2022/08/20 00:36:50;;;;;;;14.57;13.18;;;;;;;;;;5037539;28;20231;-53
2022/08/20 00:39:18;;;;;;;13.38;12.15;;;;;;;;;;5043065;28;21221;-53
2022/08/20 00:41:45;;;;;;;16.42;14.13;;;;;;;;;;5032905;28;20231;-54
2022/08/20 00:44:13;;;;;;;14.50;13.02;;;;;;;;;;5037414;28;20876;-53
2022/08/20 00:46:40;;;;;;;15.70;14.30;;;;;;;;;;5029780;28;20239;-53
2022/08/20 00:49:08;;;;;;;13.98;12.65;;;;;;;;;;5041815;28;20235;-53
2022/08/20 00:51:37;;;;;;;15.00;13.55;;;;;;;;;;5037240;28;20235;-53
2022/08/20 00:54:06;;;;;;;14.75;13.30;;;;;;;;;;5034622;28;20239;-53
2022/08/20 00:56:35;;;;;;;15.10;13.65;;;;;;;;;;5042924;28;20605;-53
2022/08/20 00:59:02;;;;;;;14.38;13.07;;;;;;;;;;5035369;28;20244;-54
2022/08/20 01:01:28;;;;;;;12.98;11.85;;;;;;;;;;5034115;28;20220;-53
2022/08/20 01:03:56;;;;;;;12.95;11.75;;;;;;;;;;5033883;28;20232;-53
2022/08/20 01:06:23;;;;;;;14.23;12.82;;;;;;;;;;5036411;28;20239;-53
2022/08/20 01:08:50;;;;;;;11.57;10.43;;;;;;;;;;5034029;28;20264;-53
2022/08/20 01:11:19;;;;;;;14.35;11.82;;;;;;;;;;5034448;28;20238;-53
2022/08/20 01:13:47;;;;;;;12.88;11.68;;;;;;;;;;5040370;28;20267;-53
2022/08/20 01:16:18;;;;;;;14.05;12.75;;;;;;;;;;5029170;28;20706;-53
2022/08/20 01:18:47;;;;;;;11.90;10.70;;;;;;;;;;5039994;28;20382;-53
2022/08/20 01:21:13;;;;;;;12.85;11.75;;;;;;;;;;5031539;28;20232;-53
2022/08/20 01:23:43;;;;;;;13.10;11.75;;;;;;;;;;5040157;28;20242;-54
2022/08/20 01:26:12;;;;;;;13.15;11.88;;;;;;;;;;5037000;28;20227;-53
2022/08/20 01:28:40;;;;;;;13.55;12.35;;;;;;;;;;5033964;28;20240;-53
2022/08/20 01:31:07;;;;;;;13.43;12.32;;;;;;;;;;5043588;28;20732;-53
2022/08/20 01:33:34;;;;;;;14.43;12.73;;;;;;;;;;5037305;28;20234;-53
2022/08/20 01:36:01;;;;;;;13.70;12.40;;;;;;;;;;5033593;28;20354;-53
2022/08/20 01:38:28;;;;;;;14.52;13.25;;;;;;;;;;5045510;28;20315;-54
2022/08/20 01:41:07;;;;;;;13.90;12.52;;;;;;;;;;5029096;28;20232;-53
2022/08/20 01:43:34;;;;;;;12.40;11.30;;;;;;;;;;5041985;28;20228;-53
2022/08/20 01:46:01;;;;;;;13.50;12.40;;;;;;;;;;5033741;28;20240;-53
2022/08/20 01:48:28;;;;;;;12.73;11.70;;;;;;;;;;5031176;28;20232;-53
2022/08/20 01:51:00;;;;;;;12.95;11.82;;;;;;;;;;5034517;28;20266;-53
2022/08/20 01:53:32;;;;;;;12.52;11.60;;;;;;;;;;5038596;28;20831;-53
2022/08/20 01:55:58;;;;;;;13.32;12.18;;;;;;;;;;5034876;28;20243;-54
2022/08/20 01:58:26;;;;;;;13.40;12.23;;;;;;;;;;5041510;28;20607;-54
2022/08/20 02:00:54;;;;;;;13.63;12.43;;;;;;;;;;5040788;28;20235;-54
2022/08/20 02:03:20;;;;;;;14.50;13.20;;;;;;;;;;5041013;28;20312;-54
2022/08/20 02:05:46;;;;;;;14.30;13.00;;;;;;;;;;5030503;28;21461;-53
2022/08/20 02:08:13;;;;;;;14.00;12.68;;;;;;;;;;5039230;28;20238;-54
2022/08/20 02:10:39;;;;;;;14.88;13.10;;;;;;;;;;5038199;28;20236;-54
2022/08/20 02:13:08;;;;;;;16.52;15.07;;;;;;;;;;5031820;28;20952;-54
2022/08/20 02:15:35;;;;;;;17.15;15.48;;;;;;;;;;5034088;28;20228;-54
2022/08/20 02:18:04;;;;;;;18.17;16.45;;;;;;;;;;5044480;28;20247;-54
2022/08/20 02:20:31;;;;;;;16.67;15.18;;;;;;;;;;5045730;28;20239;-54
2022/08/20 02:22:59;;;;;;;16.63;15.13;;;;;;;;;;5039869;28;20236;-54
2022/08/20 02:25:27;;;;;;;17.45;15.73;;;;;;;;;;5042883;28;20238;-54
2022/08/20 02:27:54;;;;;;;17.90;16.13;;;;;;;;;;5036901;28;20240;-54
2022/08/20 02:30:22;;;;;;;17.45;15.70;;;;;;;;;;5035207;28;20319;-54
2022/08/20 02:32:49;;;;;;;19.17;17.17;;;;;;;;;;5040721;28;20236;-53
2022/08/20 02:35:17;;;;;;;17.85;16.08;;;;;;;;;;5041240;28;20226;-54
2022/08/20 02:37:44;;;;;;;19.77;17.95;;;;;;;;;;5032199;28;20247;-53
2022/08/20 02:40:12;;;;;;;20.67;18.58;;;;;;;;;;5043591;28;20247;-55
2022/08/20 02:42:41;;;;;;;20.27;18.33;;;;;;;;;;5037351;28;20773;-53
2022/08/20 02:45:09;;;;;;;19.63;17.73;;;;;;;;;;5039282;28;20721;-53
2022/08/20 02:47:36;;;;;;;19.98;17.98;;;;;;;;;;5043396;28;20959;-54
2022/08/20 02:50:03;;;;;;;19.63;17.63;;;;;;;;;;5049081;28;20231;-54
2022/08/20 02:52:31;;;;;;;20.45;18.50;;;;;;;;;;5039220;28;20225;-53
2022/08/20 02:54:57;;;;;;;19.73;17.73;;;;;;;;;;5034533;28;20255;-53
2022/08/20 02:57:23;;;;;;;21.77;19.60;;;;;;;;;;5042976;28;20227;-53
2022/08/20 02:59:51;;;;;;;21.52;19.33;;;;;;;;;;5044197;28;20249;-53
2022/08/20 03:02:17;;;;;;;22.42;20.15;;;;;;;;;;5048508;28;20258;-54
2022/08/20 03:04:44;;;;;;;21.17;18.75;;;;;;;;;;5047715;28;20249;-53
2022/08/20 03:07:10;;;;;;;20.90;18.80;;;;;;;;;;5042558;28;20244;-53
2022/08/20 03:09:38;;;;;;;25.77;21.85;;;;;;;;;;5038879;28;20607;-53
2022/08/20 03:12:05;;;;;;;22.20;19.80;;;;;;;;;;5048516;28;20252;-53
2022/08/20 03:14:31;;;;;;;24.60;21.88;;;;;;;;;;5042438;28;20541;-53
2022/08/20 03:16:58;;;;;;;26.08;23.48;;;;;;;;;;5038768;28;20243;-53
2022/08/20 03:19:24;;;;;;;26.55;22.27;;;;;;;;;;5037570;28;20236;-53
2022/08/20 03:21:51;;;;;;;24.95;22.00;;;;;;;;;;5045492;28;20232;-53
2022/08/20 03:24:17;;;;;;;27.45;22.13;;;;;;;;;;5031340;28;20319;-53
2022/08/20 03:26:45;;;;;;;25.55;22.77;;;;;;;;;;5036707;28;20236;-53
2022/08/20 03:29:12;;;;;;;24.98;22.30;;;;;;;;;;5045822;28;20256;-53
2022/08/20 03:31:38;;;;;;;24.83;21.50;;;;;;;;;;5032638;28;20232;-53
2022/08/20 03:34:05;;;;;;;26.17;23.38;;;;;;;;;;5041383;28;20243;-53
2022/08/20 03:36:31;;;;;;;27.63;23.13;;;;;;;;;;5043135;28;20232;-53
2022/08/20 03:38:58;;;;;;;26.17;23.27;;;;;;;;;;5040013;28;20243;-53
2022/08/20 03:41:25;;;;;;;23.20;20.67;;;;;;;;;;5035953;28;20236;-54
2022/08/20 03:43:53;;;;;;;26.52;23.67;;;;;;;;;;5033287;28;20239;-52
2022/08/20 03:46:19;;;;;;;27.10;24.20;;;;;;;;;;5039587;28;20303;-55
2022/08/20 03:48:46;;;;;;;25.77;23.00;;;;;;;;;;5032930;28;20240;-53
2022/08/20 03:51:12;;;;;;;26.45;23.67;;;;;;;;;;5046982;28;20236;-53
2022/08/20 03:53:39;;;;;;;27.35;24.45;;;;;;;;;;5039218;28;20976;-54
2022/08/20 03:56:05;;;;;;;26.65;23.80;;;;;;;;;;5041905;28;20228;-53
2022/08/20 03:58:33;;;;;;;26.65;23.70;;;;;;;;;;5038373;28;20224;-53
2022/08/20 04:01:01;;;;;;;28.35;23.25;;;;;;;;;;5043567;28;20227;-53
2022/08/20 04:03:27;;;;;;;28.77;25.35;;;;;;;;;;5040327;28;20240;-53
2022/08/20 04:05:54;;;;;;;25.83;23.13;;;;;;;;;;5038480;28;20235;-53
2022/08/20 04:08:22;;;;;;;25.55;22.85;;;;;;;;;;5035175;28;20240;-53
2022/08/20 04:10:50;;;;;;;26.85;23.23;;;;;;;;;;5030972;28;20244;-53
2022/08/20 04:13:17;;;;;;;25.20;22.65;;;;;;;;;;5036150;28;20227;-53
2022/08/20 04:15:45;;;;;;;25.52;22.55;;;;;;;;;;5037835;28;20235;-53
2022/08/20 04:18:12;;;;;;;23.95;21.42;;;;;;;;;;5038739;28;20251;-53
2022/08/20 04:20:41;;;;;;;23.77;21.40;;;;;;;;;;5037925;28;20238;-53
2022/08/20 04:23:07;;;;;;;27.52;24.73;;;;;;;;;;5041443;28;20552;-58
2022/08/20 04:25:34;;;;;;;25.15;22.50;;;;;;;;;;5037560;28;20665;-53
2022/08/20 04:28:02;;;;;;;23.50;21.15;;;;;;;;;;5034212;28;20243;-53
2022/08/20 04:30:28;;;;;;;24.90;21.60;;;;;;;;;;5038014;28;20228;-53
2022/08/20 04:32:55;;;;;;;25.50;22.83;;;;;;;;;;5037037;28;20315;-54
2022/08/20 04:35:24;;;;;;;23.45;20.52;;;;;;;;;;5035896;28;20234;-54
2022/08/20 04:37:57;;;;;;;24.75;22.25;;;;;;;;;;5035998;28;20347;-54
2022/08/20 04:43:07;;;;;;;22.17;19.92;;;;;;;;;;5033587;28;20242;-53
2022/08/20 04:45:33;;;;;;;23.98;20.65;;;;;;;;;;5025501;28;20235;-53
2022/08/20 04:48:04;;;;;;;24.88;22.10;;;;;;;;;;5041046;28;20236;-53
2022/08/20 04:50:34;;;;;;;26.38;23.52;;;;;;;;;;5041117;28;20716;-53
2022/08/20 04:53:00;;;;;;;29.30;23.98;;;;;;;;;;5039063;28;20731;-53
2022/08/20 04:55:27;;;;;;;24.27;21.67;;;;;;;;;;5038303;28;20240;-53
2022/08/20 04:57:54;;;;;;;24.50;21.75;;;;;;;;;;5037208;28;20240;-53
2022/08/20 05:00:20;;;;;;;25.65;22.75;;;;;;;;;;5035901;28;20601;-54
2022/08/20 05:02:47;;;;;;;23.95;21.45;;;;;;;;;;5036183;28;20235;-53
2022/08/20 05:05:13;;;;;;;24.50;21.98;;;;;;;;;;5038320;28;20233;-53
2022/08/20 05:07:42;;;;;;;24.83;22.10;;;;;;;;;;5043398;28;20231;-53
2022/08/20 05:10:10;;;;;;;26.02;22.52;;;;;;;;;;5042672;28;20238;-53
2022/08/20 05:12:36;;;;;;;25.38;22.83;;;;;;;;;;5041849;28;20809;-53
2022/08/20 05:15:03;;;;;;;23.35;20.83;;;;;;;;;;5039519;28;20229;-53
2022/08/20 05:17:29;;;;;;;25.95;23.25;;;;;;;;;;5039582;28;20227;-53
2022/08/20 05:19:57;;;;;;;26.10;22.60;;;;;;;;;;5043536;28;20313;-53
2022/08/20 05:22:24;;;;;;;24.08;21.58;;;;;;;;;;5037368;28;20246;-53
2022/08/20 05:24:52;;;;;;;23.98;21.52;;;;;;;;;;5036167;28;20331;-55
2022/08/20 05:27:18;;;;;;;22.60;20.17;;;;;;;;;;5036112;28;20322;-53
2022/08/20 05:29:45;;;;;;;27.52;24.50;;;;;;;;;;5037585;28;20364;-53
2022/08/20 05:32:11;;;;;;;25.13;22.55;;;;;;;;;;5036203;28;20228;-53
2022/08/20 05:34:37;;;;;;;26.55;23.75;;;;;;;;;;5030547;28;20240;-53
2022/08/20 05:37:04;;;;;;;24.17;21.80;;;;;;;;;;5043057;28;20326;-55
2022/08/20 05:39:31;;;;;;;24.88;22.17;;;;;;;;;;5035455;28;20235;-53
2022/08/20 05:41:58;;;;;;;22.05;19.95;;;;;;;;;;5034200;28;20242;-53
2022/08/20 05:44:25;;;;;;;24.20;21.65;;;;;;;;;;5039439;28;20231;-53
2022/08/20 05:46:51;;;;;;;24.75;22.15;;;;;;;;;;5039037;28;20235;-53
2022/08/20 05:49:19;;;;;;;26.30;23.67;;;;;;;;;;5041661;28;20252;-53
2022/08/20 05:51:45;;;;;;;24.35;21.50;;;;;;;;;;5044636;28;20236;-53
2022/08/20 05:54:12;;;;;;;26.02;23.42;;;;;;;;;;5036337;28;20771;-52
2022/08/20 05:56:39;;;;;;;21.88;19.67;;;;;;;;;;5046308;28;20235;-53
2022/08/20 05:59:07;;;;;;;24.85;21.95;;;;;;;;;;5039916;28;20231;-53
2022/08/20 06:01:34;;;;;;;25.83;22.88;;;;;;;;;;5041307;28;20227;-52
2022/08/20 06:06:45;;;;;;;24.60;21.95;;;;;;;;;;5044090;28;20329;-53
2022/08/20 06:09:11;;;;;;;26.48;22.83;;;;;;;;;;5043058;28;20246;-53
2022/08/20 06:11:37;;;;;;;25.25;22.67;;;;;;;;;;5046050;28;20237;-52
2022/08/20 06:14:04;;;;;;;24.50;21.35;;;;;;;;;;5043130;28;20280;-52
2022/08/20 06:16:32;;;;;;;24.30;21.77;;;;;;;;;;5045070;28;20259;-52
2022/08/20 06:18:58;;;;;;;26.88;24.08;;;;;;;;;;5042908;28;20223;-53
2022/08/20 06:21:25;;;;;;;23.27;20.58;;;;;;;;;;5045684;28;20232;-52
2022/08/20 06:23:51;;;;;;;25.08;22.67;;;;;;;;;;5055658;28;20318;-54
2022/08/20 06:26:18;;;;;;;21.42;19.38;;;;;;;;;;5036069;28;20241;-54
2022/08/20 06:28:44;;;;;;;23.75;21.27;;;;;;;;;;5045676;28;20690;-54
2022/08/20 06:31:11;;;;;;;24.08;21.48;;;;;;;;;;5045097;28;20314;-53
2022/08/20 06:33:38;;;;;;;26.60;23.88;;;;;;;;;;5043325;28;20239;-59
2022/08/20 06:36:05;;;;;;;27.08;24.48;;;;;;;;;;5031382;28;20236;-53
2022/08/20 06:38:32;;;;;;;25.63;22.70;;;;;;;;;;5048349;28;20275;-53
2022/08/20 06:40:59;;;;;;;22.58;20.33;;;;;;;;;;5048930;28;20251;-54
2022/08/20 06:43:25;;;;;;;25.63;22.38;;;;;;;;;;5046686;28;20725;-53
2022/08/20 06:45:56;;;;;;;25.67;23.02;;;;;;;;;;5043446;28;20517;-53
2022/08/20 06:48:23;;;;;;;26.23;23.48;;;;;;;;;;5049311;28;20317;-53
2022/08/20 06:50:52;;;;;;;29.95;25.92;;;;;;;;;;5047820;28;21033;-53
2022/08/20 06:53:19;;;;;;;30.05;25.70;;;;;;;;;;5058535;28;20318;-53
2022/08/20 06:55:48;;;;;;;23.27;21.02;;;;;;;;;;5039774;28;20746;-53
2022/08/20 06:58:14;;;;;;;29.92;24.88;;;;;;;;;;5046313;28;20228;-53
2022/08/20 07:00:42;;;;;;;27.27;24.50;;;;;;;;;;5047634;28;20228;-53
2022/08/20 07:03:08;;;;;;;26.77;23.90;;;;;;;;;;5037994;28;20240;-52
2022/08/20 07:05:36;;;;;;;26.05;22.38;;;;;;;;;;5043256;28;20255;-53
2022/08/20 07:08:04;;;;;;;28.35;24.40;;;;;;;;;;5039768;28;20295;-52
2022/08/20 07:10:31;;;;;;;30.25;26.50;;;;;;;;;;5038650;28;20729;-52
2022/08/20 07:12:59;;;;;;;25.73;22.95;;;;;;;;;;5033583;28;20227;-52
2022/08/20 07:15:26;;;;;;;28.55;25.08;;;;;;;;;;5043606;28;20239;-52
2022/08/20 07:17:53;;;;;;;29.65;23.85;;;;;;;;;;5040064;28;20321;-52
2022/08/20 07:20:20;;;;;;;23.08;20.60;;;;;;;;;;5042901;28;20242;-53
2022/08/20 07:22:47;;;;;;;29.90;24.60;;;;;;;;;;5035424;28;20367;-52
2022/08/20 07:25:16;;;;;;;25.27;22.73;;;;;;;;;;5038498;28;20716;-52
2022/08/20 07:27:42;;;;;;;26.63;23.75;;;;;;;;;;5035256;28;20862;-52
2022/08/20 07:32:54;;;;;;;24.63;22.13;;;;;;;;;;5032896;28;20223;-53
2022/08/20 07:35:21;;;;;;;29.95;26.35;;;;;;;;;;5031571;28;20227;-53
2022/08/20 07:37:48;;;;;;;28.27;24.85;;;;;;;;;;5039562;28;20767;-52
2022/08/20 07:40:18;;;;;;;28.88;25.80;;;;;;;;;;5041189;28;20235;-52
2022/08/20 07:42:44;;;;;;;28.90;25.95;;;;;;;;;;5037939;28;20581;-52
2022/08/20 07:45:12;;;;;;;28.42;24.33;;;;;;;;;;5037782;28;20255;-52
2022/08/20 07:47:40;;;;;;;29.92;26.83;;;;;;;;;;5039223;28;20234;-52
2022/08/20 07:50:08;;;;;;;27.30;24.42;;;;;;;;;;5040456;28;20239;-52
2022/08/20 07:52:34;;;;;;;27.05;24.23;;;;;;;;;;5034052;28;20231;-52
2022/08/20 07:55:01;;;;;;;28.55;25.60;;;;;;;;;;5038428;28;20275;-52
2022/08/20 07:57:29;;;;;;;32.05;28.48;;;;;;;;;;5043508;28;20239;-52
2022/08/20 07:59:59;;;;;;;32.03;28.10;;;;;;;;;;5046543;28;20335;-55
2022/08/20 08:02:26;;;;;;;27.67;24.77;;;;;;;;;;5038367;28;20235;-52
2022/08/20 08:04:53;;;;;;;32.92;29.33;;;;;;;;;;5044729;28;20231;-51
2022/08/20 08:07:19;;;;;;;29.10;25.90;;;;;;;;;;5039001;28;20236;-53
2022/08/20 08:09:46;;;;;;;32.40;28.95;;;;;;;;;;5041686;28;20239;-53
2022/08/20 08:12:13;;;;;;;30.50;26.90;;;;;;;;;;5032483;28;20240;-53
2022/08/20 08:14:43;;;;;;;29.83;26.60;;;;;;;;;;5041968;28;20556;-52
2022/08/20 08:17:10;;;;;;;30.08;26.80;;;;;;;;;;5028436;28;20760;-53
2022/08/20 08:19:38;;;;;;;32.33;28.92;;;;;;;;;;5034060;28;20227;-53
2022/08/20 08:22:06;;;;;;;33.42;29.73;;;;;;;;;;5038052;28;20243;-53
2022/08/20 08:24:33;;;;;;;32.58;29.23;;;;;;;;;;5032325;28;20774;-53
2022/08/20 08:26:59;;;;;;;33.65;30.05;;;;;;;;;;5034493;28;20323;-51
2022/08/20 08:29:26;;;;;;;30.77;27.17;;;;;;;;;;5028485;28;20231;-53
2022/08/20 08:31:53;;;;;;;28.58;25.58;;;;;;;;;;5040026;28;21057;-53
2022/08/20 08:34:23;;;;;;;29.23;25.85;;;;;;;;;;5036726;28;20305;-54
2022/08/20 08:36:57;;;;;;;29.05;25.95;;;;;;;;;;5036665;28;20240;-53
2022/08/20 08:39:25;;;;;;;30.30;27.20;;;;;;;;;;5025990;28;20227;-52
2022/08/20 08:41:53;;;;;;;32.80;29.27;;;;;;;;;;5029853;28;20233;-54
2022/08/20 08:44:22;;;;;;;30.00;26.70;;;;;;;;;;5020612;28;20238;-54
2022/08/20 08:46:55;;;;;;;31.02;27.80;;;;;;;;;;5042509;28;20241;-53
2022/08/20 08:49:38;;;;;;;32.95;29.38;;;;;;;;;;5035345;28;20244;-53
2022/08/20 08:52:14;;;;;;;34.35;30.70;;;;;;;;;;5023519;28;20264;-53
2022/08/20 08:54:42;;;;;;;31.90;28.35;;;;;;;;;;5047648;28;20227;-52
2022/08/20 08:57:09;;;;;;;30.73;27.40;;;;;;;;;;5030434;28;20260;-52
2022/08/20 08:59:36;;;;;;;30.77;27.63;;;;;;;;;;5030785;28;20224;-52
2022/08/20 09:02:02;;;;;;;29.42;26.08;;;;;;;;;;5033431;28;20722;-52
2022/08/20 09:04:32;;;;;;;31.42;25.77;;;;;;;;;;5031461;28;20356;-52
2022/08/20 09:07:01;;;;;;;34.13;29.15;;;;;;;;;;5030209;28;21010;-53
2022/08/20 09:09:31;;;;;;;31.58;28.17;;;;;;;;;;5028562;28;20263;-52
2022/08/20 09:12:02;;;;;;;34.78;27.48;;;;;;;;;;5042287;28;20263;-52
2022/08/20 09:14:29;;;;;;;32.38;27.25;;;;;;;;;;5025364;28;20632;-51
2022/08/20 09:16:55;;;;;;;30.35;27.10;;;;;;;;;;5024366;28;20267;-52
2022/08/20 09:19:21;;;;;;;29.35;26.23;;;;;;;;;;5041784;28;20236;-52
2022/08/20 09:21:48;;;;;;;28.88;25.77;;;;;;;;;;5033111;28;20235;-52
2022/08/20 09:24:16;;;;;;;29.33;26.23;;;;;;;;;;5031999;28;20327;-53
2022/08/20 09:26:43;;;;;;;30.45;26.40;;;;;;;;;;5030065;28;20243;-54
2022/08/20 09:29:09;;;;;;;28.80;23.83;;;;;;;;;;5043896;28;20255;-54
2022/08/20 09:31:36;;;;;;;29.02;25.45;;;;;;;;;;5032832;28;20254;-54
2022/08/20 09:34:03;;;;;;;28.58;25.38;;;;;;;;;;5041369;28;20239;-53
2022/08/20 09:36:29;;;;;;;27.75;24.48;;;;;;;;;;5031874;28;20702;-53
2022/08/20 09:38:56;;;;;;;24.10;21.48;;;;;;;;;;5029648;28;21822;-53
2022/08/20 09:41:24;;;;;;;26.75;24.10;;;;;;;;;;5025974;28;20228;-53
2022/08/20 09:43:50;;;;;;;25.77;23.15;;;;;;;;;;5027536;28;20232;-53
2022/08/20 09:46:16;;;;;;;29.60;26.50;;;;;;;;;;5038466;28;20238;-53
2022/08/20 09:48:43;;;;;;;23.90;21.30;;;;;;;;;;5032669;28;20247;-53
2022/08/20 09:51:09;;;;;;;25.55;22.95;;;;;;;;;;5028942;28;20627;-53
2022/08/20 09:53:36;;;;;;;23.13;20.95;;;;;;;;;;5025356;28;20243;-53
2022/08/20 09:56:03;;;;;;;23.10;20.67;;;;;;;;;;5026257;28;20324;-53
2022/08/20 09:58:33;;;;;;;26.02;23.48;;;;;;;;;;5019823;28;20232;-53
2022/08/20 10:01:01;;;;;;;23.63;21.13;;;;;;;;;;5035547;28;20863;-54
2022/08/20 10:03:27;;;;;;;21.48;19.20;;;;;;;;;;5034976;28;20782;-53
2022/08/20 10:05:54;;;;;;;18.45;16.50;;;;;;;;;;5029648;28;20266;-53
2022/08/20 10:08:21;;;;;;;19.75;17.77;;;;;;;;;;5027718;28;20241;-53
2022/08/20 10:10:47;;;;;;;21.23;19.17;;;;;;;;;;5029764;28;20256;-53
2022/08/20 10:13:13;;;;;;;21.27;19.10;;;;;;;;;;5027934;28;20235;-54
2022/08/20 10:15:41;;;;;;;20.27;18.30;;;;;;;;;;5029040;28;20240;-52
2022/08/20 10:18:07;;;;;;;17.55;15.75;;;;;;;;;;5020999;28;20748;-53
2022/08/20 10:20:34;;;;;;;17.52;15.75;;;;;;;;;;5031047;28;20314;-53
2022/08/20 10:23:01;;;;;;;19.20;17.13;;;;;;;;;;5037313;28;20792;-52
2022/08/20 10:25:28;;;;;;;18.10;16.40;;;;;;;;;;5031333;28;20315;-52
2022/08/20 10:27:55;;;;;;;17.95;16.23;;;;;;;;;;5035024;28;21213;-53
2022/08/20 10:30:21;;;;;;;16.98;15.50;;;;;;;;;;5024830;28;20235;-52
2022/08/20 10:32:49;;;;;;;17.95;16.25;;;;;;;;;;5035274;28;20235;-53
2022/08/20 10:35:16;;;;;;;18.08;16.48;;;;;;;;;;5033121;28;20236;-53
2022/08/20 10:37:43;;;;;;;16.80;15.10;;;;;;;;;;5035070;28;20235;-53
2022/08/20 10:40:11;;;;;;;19.20;17.30;;;;;;;;;;5039319;28;20231;-53
2022/08/20 10:42:38;;;;;;;16.15;14.60;;;;;;;;;;5029647;28;20772;-52
2022/08/20 10:45:05;;;;;;;16.15;14.50;;;;;;;;;;5025242;28;20327;-52
2022/08/20 10:47:32;;;;;;;14.35;12.98;;;;;;;;;;5034517;28;20758;-52
2022/08/20 10:50:01;;;;;;;13.18;11.98;;;;;;;;;;5037768;28;20265;-53
2022/08/20 10:52:28;;;;;;;12.48;11.18;;;;;;;;;;5032067;28;20236;-52
2022/08/20 10:54:54;;;;;;;11.27;10.07;;;;;;;;;;5032022;28;20244;-53
2022/08/20 10:57:23;;;;;;;11.10;10.02;;;;;;;;;;5031208;28;20260;-52
2022/08/20 10:59:50;;;;;;;10.57;9.68;;;;;;;;;;5033134;28;20722;-52
2022/08/20 11:02:17;;;;;;;9.98;9.00;;;;;;;;;;5034964;28;20232;-52
2022/08/20 11:04:43;;;;;;;12.57;11.27;;;;;;;;;;5031455;28;20304;-52
2022/08/20 11:07:12;;;;;;;9.73;8.77;;;;;;;;;;5024883;28;20240;-53
2022/08/20 11:09:38;;;;;;;10.30;9.23;;;;;;;;;;5029080;28;20234;-52
2022/08/20 11:12:05;;;;;;;9.93;8.93;;;;;;;;;;5037533;28;20235;-52
2022/08/20 11:14:32;;;;;;;8.32;7.63;;;;;;;;;;5030159;28;20902;-52
2022/08/20 11:16:58;;;;;;;8.98;8.23;;;;;;;;;;5028624;28;20668;-53
2022/08/20 11:19:25;;;;;;;8.50;7.70;;;;;;;;;;5048773;28;20236;-52
2022/08/20 11:21:51;;;;;;;8.90;8.10;;;;;;;;;;5033988;28;20235;-52
2022/08/20 11:24:19;;;;;;;7.85;7.22;;;;;;;;;;5033952;28;20239;-52
2022/08/20 11:26:46;;;;;;;9.13;8.32;;;;;;;;;;5041035;28;20236;-52
2022/08/20 11:29:12;;;;;;;8.25;7.40;;;;;;;;;;5038096;28;20245;-52
2022/08/20 11:31:39;;;;;;;7.03;6.43;;;;;;;;;;5039449;28;20235;-52
2022/08/20 11:34:05;;;;;;;8.20;7.38;;;;;;;;;;5031315;28;20645;-52
2022/08/20 11:36:32;;;;;;;7.55;6.95;;;;;;;;;;5027822;28;20521;-52
2022/08/20 11:38:58;;;;;;;7.18;6.35;;;;;;;;;;5031870;28;20730;-52
2022/08/20 11:41:26;;;;;;;6.57;5.97;;;;;;;;;;5030862;28;20259;-52
2022/08/20 11:43:52;;;;;;;7.45;6.75;;;;;;;;;;5035988;28;20242;-52
2022/08/20 11:46:19;;;;;;;7.18;6.47;;;;;;;;;;5036079;28;20231;-52
2022/08/20 11:48:45;;;;;;;7.63;6.93;;;;;;;;;;5040856;28;20232;-52
2022/08/20 11:51:11;;;;;;;6.78;6.07;;;;;;;;;;5033103;28;20254;-52
2022/08/20 11:53:38;;;;;;;7.68;6.90;;;;;;;;;;5031186;28;20231;-52
2022/08/20 11:56:05;;;;;;;5.78;5.35;;;;;;;;;;5034947;28;20236;-52
2022/08/20 11:58:33;;;;;;;6.68;5.93;;;;;;;;;;5040018;28;20280;-52
2022/08/20 12:00:59;;;;;;;6.57;5.97;;;;;;;;;;5032671;28;20235;-52
2022/08/20 12:03:26;;;;;;;6.82;6.22;;;;;;;;;;5039489;28;20236;-53
2022/08/20 12:05:55;;;;;;;6.10;5.63;;;;;;;;;;5034910;28;20244;-52
2022/08/20 12:08:22;;;;;;;7.57;6.88;;;;;;;;;;5037584;28;20729;-52
2022/08/20 12:10:48;;;;;;;7.45;6.68;;;;;;;;;;5034864;28;20239;-52
2022/08/20 12:13:15;;;;;;;6.20;5.60;;;;;;;;;;5032408;28;20243;-53
2022/08/20 12:15:42;;;;;;;5.88;5.40;;;;;;;;;;5030334;28;20246;-52
2022/08/20 12:18:10;;;;;;;5.32;4.82;;;;;;;;;;5041854;28;20246;-54
2022/08/20 12:20:37;;;;;;;5.15;4.75;;;;;;;;;;5028117;28;20234;-53
2022/08/20 12:23:04;;;;;;;5.80;5.30;;;;;;;;;;5034425;28;20243;-53
2022/08/20 12:25:30;;;;;;;5.22;4.68;;;;;;;;;;5035207;28;20326;-52
2022/08/20 12:27:58;;;;;;;5.80;5.35;;;;;;;;;;5043064;28;20273;-53
2022/08/20 12:30:25;;;;;;;5.75;5.30;;;;;;;;;;5030606;28;20326;-55
2022/08/20 12:32:53;;;;;;;5.32;4.82;;;;;;;;;;5033536;28;20248;-52
2022/08/20 12:35:20;;;;;;;5.63;5.13;;;;;;;;;;5031580;28;20746;-53
2022/08/20 12:37:47;;;;;;;5.90;5.32;;;;;;;;;;5032696;28;20334;-53
2022/08/20 12:40:14;;;;;;;5.65;5.25;;;;;;;;;;5033836;28;20232;-52
2022/08/20 12:42:41;;;;;;;4.57;4.18;;;;;;;;;;5037237;28;20302;-53
2022/08/20 12:45:08;;;;;;;5.72;5.30;;;;;;;;;;5033491;28;20251;-53
2022/08/20 12:47:36;;;;;;;5.38;4.88;;;;;;;;;;5036087;28;20239;-53
2022/08/20 12:50:05;;;;;;;5.50;5.00;;;;;;;;;;5030899;28;20768;-53
2022/08/20 12:52:32;;;;;;;5.18;4.57;;;;;;;;;;5034497;28;20999;-53
2022/08/20 12:54:59;;;;;;;5.45;5.00;;;;;;;;;;5030623;28;21804;-53
2022/08/20 12:57:27;;;;;;;6.18;5.72;;;;;;;;;;5027620;28;20243;-53
2022/08/20 12:59:54;;;;;;;6.53;5.93;;;;;;;;;;5030584;28;20237;-52
2022/08/20 13:02:20;;;;;;;5.85;5.43;;;;;;;;;;5036948;28;20236;-52
2022/08/20 13:04:47;;;;;;;5.80;5.20;;;;;;;;;;5033953;28;20228;-53
2022/08/20 13:07:15;;;;;;;5.88;5.32;;;;;;;;;;5030689;28;20247;-52
2022/08/20 13:09:42;;;;;;;7.18;6.53;;;;;;;;;;5030443;28;20233;-52
2022/08/20 13:12:08;;;;;;;5.53;4.63;;;;;;;;;;5030654;28;20239;-52
2022/08/20 13:14:35;;;;;;;5.93;5.38;;;;;;;;;;5033101;28;20223;-52
2022/08/20 13:17:02;;;;;;;6.90;6.32;;;;;;;;;;5025665;28;20651;-52
2022/08/20 13:19:29;;;;;;;6.25;5.50;;;;;;;;;;5036995;28;20231;-52
2022/08/20 13:21:56;;;;;;;6.82;6.32;;;;;;;;;;5032971;28;20232;-52
2022/08/20 13:24:23;;;;;;;6.15;5.68;;;;;;;;;;5029746;28;20227;-52
2022/08/20 13:26:50;;;;;;;6.45;5.90;;;;;;;;;;5030826;28;20694;-52
2022/08/20 13:29:17;;;;;;;7.07;6.38;;;;;;;;;;5029895;28;20228;-52
2022/08/20 13:31:44;;;;;;;6.53;5.95;;;;;;;;;;5028955;28;20256;-52
2022/08/20 13:34:11;;;;;;;7.93;7.22;;;;;;;;;;5034037;28;20231;-53
2022/08/20 13:36:37;;;;;;;7.28;6.47;;;;;;;;;;5030388;28;20704;-53
2022/08/20 13:39:05;;;;;;;7.60;6.90;;;;;;;;;;5029808;28;20241;-52
2022/08/20 13:41:33;;;;;;;7.40;6.80;;;;;;;;;;5033132;28;20223;-53
2022/08/20 13:43:59;;;;;;;8.15;6.22;;;;;;;;;;5029312;28;20236;-53
2022/08/20 13:46:26;;;;;;;9.93;7.22;;;;;;;;;;5037037;28;20849;-52
2022/08/20 13:48:52;;;;;;;7.53;6.93;;;;;;;;;;5040491;28;20235;-52
2022/08/20 13:51:18;;;;;;;9.05;8.35;;;;;;;;;;5036605;28;20235;-53
2022/08/20 13:53:45;;;;;;;8.32;7.50;;;;;;;;;;5029536;28;21796;-53
2022/08/20 13:56:12;;;;;;;7.80;7.10;;;;;;;;;;5032398;28;20302;-53
2022/08/20 13:58:40;;;;;;;8.82;8.07;;;;;;;;;;5030947;28;20224;-53
2022/08/20 14:01:06;;;;;;;8.07;7.38;;;;;;;;;;5034429;28;20312;-53
2022/08/20 14:03:33;;;;;;;9.25;8.15;;;;;;;;;;5028692;28;20239;-53
2022/08/20 14:06:00;;;;;;;10.07;8.85;;;;;;;;;;5029305;28;20266;-53
2022/08/20 14:08:26;;;;;;;9.15;8.45;;;;;;;;;;5034624;28;20240;-53
2022/08/20 14:10:53;;;;;;;10.20;8.82;;;;;;;;;;5042003;28;20266;-53
2022/08/20 14:13:20;;;;;;;9.73;8.80;;;;;;;;;;5031904;28;20597;-53
2022/08/20 14:15:48;;;;;;;10.00;8.93;;;;;;;;;;5036098;28;20255;-53
2022/08/20 14:18:15;;;;;;;10.55;9.50;;;;;;;;;;5044251;28;20251;-53
2022/08/20 14:20:42;;;;;;;10.60;9.00;;;;;;;;;;5037587;28;20234;-53
2022/08/20 14:23:09;;;;;;;8.90;8.10;;;;;;;;;;5045746;28;20238;-52
2022/08/20 14:25:35;;;;;;;9.32;8.52;;;;;;;;;;5029966;28;20229;-52
2022/08/20 14:28:09;;;;;;;10.27;9.40;;;;;;;;;;5031455;28;20753;-52
2022/08/20 14:30:35;;;;;;;10.23;9.32;;;;;;;;;;5027352;28;20229;-52